sensor_id;sensor_type;location;lat;lon;timestamp;P1;durP1;ratioP1;P2;durP2;ratioP2
56114;SDS011;41988;53.020;6.576;2023-02-28T00:01:50;9.33;;;3.57;;
56114;SDS011;41988;53.020;6.576;2023-02-28T00:04:35;15.27;;;4.13;;
56114;SDS011;41988;53.020;6.576;2023-02-28T00:07:19;11.77;;;3.90;;
56114;SDS011;41988;53.020;6.576;2023-02-28T00:10:05;9.82;;;3.72;;
56114;SDS011;41988;53.020;6.576;2023-02-28T00:12:51;6.68;;;3.15;;
56114;SDS011;41988;53.020;6.576;2023-02-28T00:15:36;11.60;;;3.63;;
56114;SDS011;41988;53.020;6.576;2023-02-28T00:18:21;8.65;;;3.55;;
56114;SDS011;41988;53.020;6.576;2023-02-28T00:21:05;8.07;;;3.28;;
56114;SDS011;41988;53.020;6.576;2023-02-28T00:23:50;10.63;;;3.45;;
56114;SDS011;41988;53.020;6.576;2023-02-28T00:26:35;11.73;;;3.87;;
56114;SDS011;41988;53.020;6.576;2023-02-28T00:29:19;10.97;;;3.63;;
56114;SDS011;41988;53.020;6.576;2023-02-28T00:32:04;10.77;;;4.53;;
56114;SDS011;41988;53.020;6.576;2023-02-28T00:34:49;9.33;;;3.53;;
56114;SDS011;41988;53.020;6.576;2023-02-28T00:37:33;7.43;;;3.20;;
56114;SDS011;41988;53.020;6.576;2023-02-28T00:40:18;10.50;;;3.37;;
56114;SDS011;41988;53.020;6.576;2023-02-28T00:43:03;6.50;;;3.80;;
56114;SDS011;41988;53.020;6.576;2023-02-28T00:45:47;8.80;;;3.60;;
56114;SDS011;41988;53.020;6.576;2023-02-28T00:48:32;8.37;;;3.63;;
56114;SDS011;41988;53.020;6.576;2023-02-28T00:51:16;9.27;;;3.70;;
56114;SDS011;41988;53.020;6.576;2023-02-28T00:54:01;8.07;;;3.23;;
56114;SDS011;41988;53.020;6.576;2023-02-28T00:56:45;11.45;;;4.65;;
56114;SDS011;41988;53.020;6.576;2023-02-28T00:59:30;11.10;;;4.05;;
56114;SDS011;41988;53.020;6.576;2023-02-28T01:02:15;8.68;;;3.65;;
56114;SDS011;41988;53.020;6.576;2023-02-28T01:05:01;7.70;;;3.60;;
56114;SDS011;41988;53.020;6.576;2023-02-28T01:07:46;14.70;;;4.17;;
56114;SDS011;41988;53.020;6.576;2023-02-28T01:10:31;13.77;;;4.83;;
56114;SDS011;41988;53.020;6.576;2023-02-28T01:13:15;12.27;;;3.37;;
56114;SDS011;41988;53.020;6.576;2023-02-28T01:16:00;9.07;;;3.30;;
56114;SDS011;41988;53.020;6.576;2023-02-28T01:18:45;10.82;;;3.58;;
56114;SDS011;41988;53.020;6.576;2023-02-28T01:21:29;6.97;;;3.40;;
56114;SDS011;41988;53.020;6.576;2023-02-28T01:24:14;7.63;;;3.57;;
56114;SDS011;41988;53.020;6.576;2023-02-28T01:26:58;13.05;;;4.10;;
56114;SDS011;41988;53.020;6.576;2023-02-28T01:29:43;7.57;;;3.57;;
56114;SDS011;41988;53.020;6.576;2023-02-28T01:32:27;8.37;;;4.27;;
56114;SDS011;41988;53.020;6.576;2023-02-28T01:35:12;10.20;;;3.90;;
56114;SDS011;41988;53.020;6.576;2023-02-28T01:37:56;9.43;;;4.27;;
56114;SDS011;41988;53.020;6.576;2023-02-28T01:40:41;7.53;;;4.40;;
56114;SDS011;41988;53.020;6.576;2023-02-28T01:43:26;10.23;;;5.05;;
56114;SDS011;41988;53.020;6.576;2023-02-28T01:46:12;10.67;;;4.07;;
56114;SDS011;41988;53.020;6.576;2023-02-28T01:49:08;14.87;;;4.50;;
56114;SDS011;41988;53.020;6.576;2023-02-28T01:51:54;10.40;;;4.23;;
56114;SDS011;41988;53.020;6.576;2023-02-28T01:54:39;10.53;;;4.53;;
56114;SDS011;41988;53.020;6.576;2023-02-28T01:57:25;10.77;;;4.67;;
56114;SDS011;41988;53.020;6.576;2023-02-28T02:00:11;10.13;;;5.47;;
56114;SDS011;41988;53.020;6.576;2023-02-28T02:03:05;9.32;;;4.25;;
56114;SDS011;41988;53.020;6.576;2023-02-28T02:05:51;14.87;;;4.30;;
56114;SDS011;41988;53.020;6.576;2023-02-28T02:08:35;7.47;;;4.37;;
56114;SDS011;41988;53.020;6.576;2023-02-28T02:11:22;10.47;;;5.07;;
56114;SDS011;41988;53.020;6.576;2023-02-28T02:25:53;10.33;;;4.90;;
56114;SDS011;41988;53.020;6.576;2023-02-28T02:31:27;12.93;;;5.47;;
56114;SDS011;41988;53.020;6.576;2023-02-28T02:34:24;15.73;;;5.07;;
56114;SDS011;41988;53.020;6.576;2023-02-28T02:42:50;12.53;;;6.00;;
56114;SDS011;41988;53.020;6.576;2023-02-28T02:48:47;16.20;;;6.67;;
56114;SDS011;41988;53.020;6.576;2023-02-28T02:51:32;16.77;;;5.93;;
56114;SDS011;41988;53.020;6.576;2023-02-28T02:54:19;14.63;;;6.77;;
56114;SDS011;41988;53.020;6.576;2023-02-28T02:57:05;11.40;;;5.90;;
56114;SDS011;41988;53.020;6.576;2023-02-28T02:59:52;14.73;;;6.40;;
56114;SDS011;41988;53.020;6.576;2023-02-28T03:02:37;15.57;;;6.10;;
56114;SDS011;41988;53.020;6.576;2023-02-28T03:05:26;14.07;;;6.17;;
56114;SDS011;41988;53.020;6.576;2023-02-28T03:08:12;12.23;;;7.03;;
56114;SDS011;41988;53.020;6.576;2023-02-28T03:10:58;15.30;;;6.87;;
56114;SDS011;41988;53.020;6.576;2023-02-28T03:25:05;8.02;;;4.72;;
56114;SDS011;41988;53.020;6.576;2023-02-28T03:34:01;9.63;;;4.40;;
56114;SDS011;41988;53.020;6.576;2023-02-28T03:36:48;11.90;;;5.30;;
56114;SDS011;41988;53.020;6.576;2023-02-28T03:39:39;9.67;;;5.43;;
56114;SDS011;41988;53.020;6.576;2023-02-28T03:42:26;10.77;;;5.57;;
56114;SDS011;41988;53.020;6.576;2023-02-28T03:45:13;10.43;;;4.87;;
56114;SDS011;41988;53.020;6.576;2023-02-28T03:48:02;14.97;;;5.63;;
56114;SDS011;41988;53.020;6.576;2023-02-28T03:50:52;15.60;;;5.57;;
56114;SDS011;41988;53.020;6.576;2023-02-28T03:53:39;13.50;;;6.03;;
56114;SDS011;41988;53.020;6.576;2023-02-28T03:56:32;14.03;;;5.87;;
56114;SDS011;41988;53.020;6.576;2023-02-28T03:59:40;10.93;;;5.57;;
56114;SDS011;41988;53.020;6.576;2023-02-28T04:02:22;15.23;;;6.37;;
56114;SDS011;41988;53.020;6.576;2023-02-28T04:05:07;10.80;;;6.47;;
56114;SDS011;41988;53.020;6.576;2023-02-28T04:07:52;16.53;;;6.70;;
56114;SDS011;41988;53.020;6.576;2023-02-28T04:10:37;14.30;;;7.03;;
56114;SDS011;41988;53.020;6.576;2023-02-28T04:13:23;14.33;;;6.57;;
56114;SDS011;41988;53.020;6.576;2023-02-28T04:16:08;14.70;;;6.93;;
56114;SDS011;41988;53.020;6.576;2023-02-28T04:18:55;14.73;;;6.87;;
56114;SDS011;41988;53.020;6.576;2023-02-28T04:21:46;15.77;;;6.77;;
56114;SDS011;41988;53.020;6.576;2023-02-28T04:24:31;15.60;;;6.93;;
56114;SDS011;41988;53.020;6.576;2023-02-28T04:27:16;14.93;;;6.67;;
56114;SDS011;41988;53.020;6.576;2023-02-28T04:30:01;19.20;;;7.67;;
56114;SDS011;41988;53.020;6.576;2023-02-28T04:32:45;15.70;;;6.57;;
56114;SDS011;41988;53.020;6.576;2023-02-28T04:35:30;19.33;;;8.13;;
56114;SDS011;41988;53.020;6.576;2023-02-28T04:38:15;18.67;;;8.43;;
56114;SDS011;41988;53.020;6.576;2023-02-28T04:41:00;13.50;;;8.03;;
56114;SDS011;41988;53.020;6.576;2023-02-28T04:43:44;16.77;;;9.17;;
56114;SDS011;41988;53.020;6.576;2023-02-28T04:46:29;21.73;;;8.23;;
56114;SDS011;41988;53.020;6.576;2023-02-28T04:49:14;20.07;;;9.03;;
56114;SDS011;41988;53.020;6.576;2023-02-28T04:51:59;17.47;;;8.77;;
56114;SDS011;41988;53.020;6.576;2023-02-28T04:54:43;20.37;;;10.27;;
56114;SDS011;41988;53.020;6.576;2023-02-28T04:57:28;21.03;;;9.63;;
56114;SDS011;41988;53.020;6.576;2023-02-28T05:00:13;19.80;;;9.70;;
56114;SDS011;41988;53.020;6.576;2023-02-28T05:03:00;21.40;;;10.63;;
56114;SDS011;41988;53.020;6.576;2023-02-28T05:05:44;18.43;;;9.87;;
56114;SDS011;41988;53.020;6.576;2023-02-28T05:08:29;22.90;;;9.70;;
56114;SDS011;41988;53.020;6.576;2023-02-28T05:11:15;17.83;;;9.30;;
56114;SDS011;41988;53.020;6.576;2023-02-28T05:14:00;19.40;;;11.17;;
56114;SDS011;41988;53.020;6.576;2023-02-28T05:16:45;21.47;;;10.13;;
56114;SDS011;41988;53.020;6.576;2023-02-28T05:19:30;25.83;;;11.70;;
56114;SDS011;41988;53.020;6.576;2023-02-28T05:22:15;23.93;;;11.17;;
56114;SDS011;41988;53.020;6.576;2023-02-28T05:25:00;27.13;;;10.70;;
56114;SDS011;41988;53.020;6.576;2023-02-28T05:27:45;25.37;;;11.30;;
56114;SDS011;41988;53.020;6.576;2023-02-28T05:30:29;29.07;;;11.33;;
56114;SDS011;41988;53.020;6.576;2023-02-28T05:33:15;23.53;;;11.07;;
56114;SDS011;41988;53.020;6.576;2023-02-28T05:35:59;25.30;;;10.90;;
56114;SDS011;41988;53.020;6.576;2023-02-28T05:38:45;21.97;;;11.53;;
56114;SDS011;41988;53.020;6.576;2023-02-28T05:41:31;27.83;;;11.10;;
56114;SDS011;41988;53.020;6.576;2023-02-28T05:44:15;22.70;;;11.00;;
56114;SDS011;41988;53.020;6.576;2023-02-28T05:47:00;23.23;;;11.03;;
56114;SDS011;41988;53.020;6.576;2023-02-28T05:49:45;24.60;;;11.27;;
56114;SDS011;41988;53.020;6.576;2023-02-28T05:52:29;23.17;;;11.37;;
56114;SDS011;41988;53.020;6.576;2023-02-28T05:55:14;23.20;;;12.67;;
56114;SDS011;41988;53.020;6.576;2023-02-28T05:57:58;23.60;;;12.97;;
56114;SDS011;41988;53.020;6.576;2023-02-28T06:00:43;23.67;;;12.13;;
56114;SDS011;41988;53.020;6.576;2023-02-28T06:03:27;26.97;;;12.70;;
56114;SDS011;41988;53.020;6.576;2023-02-28T06:06:12;27.23;;;11.87;;
56114;SDS011;41988;53.020;6.576;2023-02-28T06:08:56;21.67;;;12.23;;
56114;SDS011;41988;53.020;6.576;2023-02-28T06:11:42;25.07;;;12.37;;
56114;SDS011;41988;53.020;6.576;2023-02-28T06:14:26;28.03;;;12.13;;
56114;SDS011;41988;53.020;6.576;2023-02-28T06:17:11;25.50;;;12.73;;
56114;SDS011;41988;53.020;6.576;2023-02-28T06:19:55;26.43;;;11.73;;
56114;SDS011;41988;53.020;6.576;2023-02-28T06:22:40;22.37;;;12.03;;
56114;SDS011;41988;53.020;6.576;2023-02-28T06:25:25;24.17;;;12.37;;
56114;SDS011;41988;53.020;6.576;2023-02-28T06:28:10;27.67;;;12.10;;
56114;SDS011;41988;53.020;6.576;2023-02-28T06:30:55;28.37;;;11.37;;
56114;SDS011;41988;53.020;6.576;2023-02-28T06:33:40;27.97;;;12.60;;
56114;SDS011;41988;53.020;6.576;2023-02-28T06:36:26;25.60;;;12.27;;
56114;SDS011;41988;53.020;6.576;2023-02-28T06:39:10;24.70;;;11.73;;
56114;SDS011;41988;53.020;6.576;2023-02-28T06:41:55;24.10;;;12.00;;
56114;SDS011;41988;53.020;6.576;2023-02-28T06:44:39;23.20;;;12.40;;
56114;SDS011;41988;53.020;6.576;2023-02-28T06:47:24;27.87;;;12.40;;
56114;SDS011;41988;53.020;6.576;2023-02-28T06:50:09;26.83;;;12.83;;
56114;SDS011;41988;53.020;6.576;2023-02-28T06:52:55;30.77;;;13.80;;
56114;SDS011;41988;53.020;6.576;2023-02-28T06:55:39;29.70;;;13.03;;
56114;SDS011;41988;53.020;6.576;2023-02-28T06:58:24;26.10;;;12.70;;
56114;SDS011;41988;53.020;6.576;2023-02-28T07:01:09;25.63;;;13.33;;
56114;SDS011;41988;53.020;6.576;2023-02-28T07:03:54;23.47;;;12.10;;
56114;SDS011;41988;53.020;6.576;2023-02-28T07:06:39;23.07;;;12.77;;
56114;SDS011;41988;53.020;6.576;2023-02-28T07:09:23;24.70;;;13.57;;
56114;SDS011;41988;53.020;6.576;2023-02-28T07:12:13;22.33;;;11.17;;
56114;SDS011;41988;53.020;6.576;2023-02-28T07:14:58;22.13;;;11.87;;
56114;SDS011;41988;53.020;6.576;2023-02-28T07:17:42;24.27;;;11.57;;
56114;SDS011;41988;53.020;6.576;2023-02-28T07:20:27;25.43;;;12.20;;
56114;SDS011;41988;53.020;6.576;2023-02-28T07:23:11;22.90;;;11.13;;
56114;SDS011;41988;53.020;6.576;2023-02-28T07:25:56;26.63;;;11.33;;
56114;SDS011;41988;53.020;6.576;2023-02-28T07:28:41;25.17;;;11.70;;
56114;SDS011;41988;53.020;6.576;2023-02-28T07:31:26;23.03;;;11.97;;
56114;SDS011;41988;53.020;6.576;2023-02-28T07:34:10;25.60;;;12.47;;
56114;SDS011;41988;53.020;6.576;2023-02-28T07:36:55;22.23;;;11.63;;
56114;SDS011;41988;53.020;6.576;2023-02-28T07:39:40;23.67;;;11.67;;
56114;SDS011;41988;53.020;6.576;2023-02-28T07:42:27;24.60;;;12.43;;
56114;SDS011;41988;53.020;6.576;2023-02-28T07:45:12;27.20;;;12.03;;
56114;SDS011;41988;53.020;6.576;2023-02-28T07:47:56;27.30;;;12.83;;
56114;SDS011;41988;53.020;6.576;2023-02-28T07:50:41;21.73;;;11.67;;
56114;SDS011;41988;53.020;6.576;2023-02-28T07:53:26;24.77;;;13.10;;
56114;SDS011;41988;53.020;6.576;2023-02-28T07:56:11;23.93;;;11.80;;
56114;SDS011;41988;53.020;6.576;2023-02-28T07:58:56;27.67;;;12.57;;
56114;SDS011;41988;53.020;6.576;2023-02-28T08:01:40;28.43;;;12.33;;
56114;SDS011;41988;53.020;6.576;2023-02-28T08:04:27;22.83;;;11.43;;
56114;SDS011;41988;53.020;6.576;2023-02-28T08:07:12;24.80;;;11.40;;
56114;SDS011;41988;53.020;6.576;2023-02-28T08:09:57;24.50;;;11.43;;
56114;SDS011;41988;53.020;6.576;2023-02-28T08:12:42;24.53;;;11.93;;
56114;SDS011;41988;53.020;6.576;2023-02-28T08:15:26;20.10;;;11.17;;
56114;SDS011;41988;53.020;6.576;2023-02-28T08:18:11;20.07;;;12.00;;
56114;SDS011;41988;53.020;6.576;2023-02-28T08:20:55;20.80;;;11.50;;
56114;SDS011;41988;53.020;6.576;2023-02-28T08:23:41;23.67;;;11.10;;
56114;SDS011;41988;53.020;6.576;2023-02-28T08:26:25;19.50;;;11.27;;
56114;SDS011;41988;53.020;6.576;2023-02-28T08:29:10;21.77;;;11.90;;
56114;SDS011;41988;53.020;6.576;2023-02-28T08:31:55;23.33;;;11.87;;
56114;SDS011;41988;53.020;6.576;2023-02-28T08:34:39;19.97;;;10.77;;
56114;SDS011;41988;53.020;6.576;2023-02-28T08:37:24;19.43;;;10.53;;
56114;SDS011;41988;53.020;6.576;2023-02-28T08:40:09;23.10;;;12.70;;
56114;SDS011;41988;53.020;6.576;2023-02-28T08:42:54;21.73;;;12.50;;
56114;SDS011;41988;53.020;6.576;2023-02-28T08:45:38;26.53;;;12.70;;
56114;SDS011;41988;53.020;6.576;2023-02-28T08:48:24;21.77;;;12.60;;
56114;SDS011;41988;53.020;6.576;2023-02-28T08:51:10;23.90;;;10.97;;
56114;SDS011;41988;53.020;6.576;2023-02-28T08:53:57;19.97;;;10.53;;
56114;SDS011;41988;53.020;6.576;2023-02-28T08:56:43;23.80;;;10.90;;
56114;SDS011;41988;53.020;6.576;2023-02-28T08:59:28;18.03;;;10.80;;
56114;SDS011;41988;53.020;6.576;2023-02-28T09:02:13;17.03;;;10.30;;
56114;SDS011;41988;53.020;6.576;2023-02-28T09:04:57;26.77;;;11.70;;
56114;SDS011;41988;53.020;6.576;2023-02-28T09:07:42;20.07;;;11.53;;
56114;SDS011;41988;53.020;6.576;2023-02-28T09:10:26;17.37;;;11.00;;
56114;SDS011;41988;53.020;6.576;2023-02-28T09:13:11;19.77;;;11.10;;
56114;SDS011;41988;53.020;6.576;2023-02-28T09:15:59;19.50;;;10.53;;
56114;SDS011;41988;53.020;6.576;2023-02-28T09:18:45;18.10;;;9.53;;
56114;SDS011;41988;53.020;6.576;2023-02-28T09:21:30;16.03;;;9.03;;
56114;SDS011;41988;53.020;6.576;2023-02-28T09:24:14;22.08;;;9.93;;
56114;SDS011;41988;53.020;6.576;2023-02-28T09:26:59;13.55;;;8.65;;
56114;SDS011;41988;53.020;6.576;2023-02-28T09:29:44;15.82;;;9.63;;
56114;SDS011;41988;53.020;6.576;2023-02-28T09:32:28;12.43;;;8.25;;
56114;SDS011;41988;53.020;6.576;2023-02-28T09:35:13;17.15;;;8.40;;
56114;SDS011;41988;53.020;6.576;2023-02-28T09:37:59;14.77;;;9.32;;
56114;SDS011;41988;53.020;6.576;2023-02-28T09:40:50;19.95;;;8.68;;
56114;SDS011;41988;53.020;6.576;2023-02-28T09:43:36;14.85;;;8.38;;
56114;SDS011;41988;53.020;6.576;2023-02-28T09:46:43;16.08;;;9.30;;
56114;SDS011;41988;53.020;6.576;2023-02-28T09:49:31;11.80;;;7.78;;
56114;SDS011;41988;53.020;6.576;2023-02-28T09:52:18;11.77;;;8.38;;
56114;SDS011;41988;53.020;6.576;2023-02-28T09:58:22;11.75;;;6.57;;
56114;SDS011;41988;53.020;6.576;2023-02-28T10:06:48;10.40;;;5.85;;
56114;SDS011;41988;53.020;6.576;2023-02-28T10:09:34;10.18;;;5.07;;
56114;SDS011;41988;53.020;6.576;2023-02-28T10:12:20;8.60;;;4.63;;
56114;SDS011;41988;53.020;6.576;2023-02-28T10:15:05;8.57;;;5.53;;
56114;SDS011;41988;53.020;6.576;2023-02-28T10:17:58;8.75;;;5.30;;
56114;SDS011;41988;53.020;6.576;2023-02-28T10:20:47;9.82;;;4.35;;
56114;SDS011;41988;53.020;6.576;2023-02-28T10:23:36;11.70;;;4.93;;
56114;SDS011;41988;53.020;6.576;2023-02-28T10:26:21;8.93;;;4.57;;
56114;SDS011;41988;53.020;6.576;2023-02-28T10:29:07;8.02;;;4.60;;
56114;SDS011;41988;53.020;6.576;2023-02-28T10:31:52;8.07;;;4.85;;
56114;SDS011;41988;53.020;6.576;2023-02-28T10:34:37;5.47;;;3.10;;
56114;SDS011;41988;53.020;6.576;2023-02-28T10:37:21;5.90;;;3.60;;
56114;SDS011;41988;53.020;6.576;2023-02-28T10:40:07;5.45;;;3.63;;
56114;SDS011;41988;53.020;6.576;2023-02-28T10:46:11;6.10;;;3.55;;
56114;SDS011;41988;53.020;6.576;2023-02-28T10:49:13;9.07;;;3.83;;
56114;SDS011;41988;53.020;6.576;2023-02-28T10:52:07;6.35;;;3.72;;
56114;SDS011;41988;53.020;6.576;2023-02-28T10:54:53;6.72;;;3.90;;
56114;SDS011;41988;53.020;6.576;2023-02-28T10:57:57;8.07;;;3.70;;
56114;SDS011;41988;53.020;6.576;2023-02-28T11:00:42;7.65;;;3.60;;
56114;SDS011;41988;53.020;6.576;2023-02-28T11:03:34;6.78;;;3.92;;
56114;SDS011;41988;53.020;6.576;2023-02-28T11:06:20;6.70;;;4.03;;
56114;SDS011;41988;53.020;6.576;2023-02-28T11:09:16;5.38;;;3.42;;
56114;SDS011;41988;53.020;6.576;2023-02-28T11:12:03;8.07;;;3.80;;
56114;SDS011;41988;53.020;6.576;2023-02-28T11:14:53;9.13;;;4.30;;
56114;SDS011;41988;53.020;6.576;2023-02-28T11:17:39;9.30;;;4.47;;
56114;SDS011;41988;53.020;6.576;2023-02-28T11:20:26;7.43;;;3.83;;
56114;SDS011;41988;53.020;6.576;2023-02-28T11:23:12;6.10;;;4.25;;
56114;SDS011;41988;53.020;6.576;2023-02-28T11:25:59;8.57;;;4.20;;
56114;SDS011;41988;53.020;6.576;2023-02-28T11:28:45;8.07;;;4.15;;
56114;SDS011;41988;53.020;6.576;2023-02-28T11:31:29;10.77;;;4.55;;
56114;SDS011;41988;53.020;6.576;2023-02-28T11:34:25;8.35;;;4.57;;
56114;SDS011;41988;53.020;6.576;2023-02-28T11:37:20;7.38;;;4.90;;
56114;SDS011;41988;53.020;6.576;2023-02-28T11:40:17;6.55;;;4.43;;
56114;SDS011;41988;53.020;6.576;2023-02-28T11:48:49;7.35;;;4.60;;
56114;SDS011;41988;53.020;6.576;2023-02-28T11:51:47;6.85;;;3.70;;
56114;SDS011;41988;53.020;6.576;2023-02-28T11:54:35;6.00;;;3.58;;
56114;SDS011;41988;53.020;6.576;2023-02-28T12:26:48;8.95;;;3.58;;
56114;SDS011;41988;53.020;6.576;2023-02-28T12:29:39;6.75;;;4.30;;
56114;SDS011;41988;53.020;6.576;2023-02-28T12:32:42;7.07;;;4.10;;
56114;SDS011;41988;53.020;6.576;2023-02-28T12:35:33;7.13;;;4.70;;
56114;SDS011;41988;53.020;6.576;2023-02-28T12:38:24;6.15;;;4.30;;
56114;SDS011;41988;53.020;6.576;2023-02-28T12:41:12;9.15;;;4.55;;
56114;SDS011;41988;53.020;6.576;2023-02-28T12:44:02;7.00;;;4.05;;
56114;SDS011;41988;53.020;6.576;2023-02-28T12:46:51;8.05;;;4.22;;
56114;SDS011;41988;53.020;6.576;2023-02-28T12:49:38;7.78;;;4.13;;
56114;SDS011;41988;53.020;6.576;2023-02-28T12:52:26;7.63;;;4.60;;
56114;SDS011;41988;53.020;6.576;2023-02-28T13:01:20;5.47;;;3.55;;
56114;SDS011;41988;53.020;6.576;2023-02-28T13:10:05;8.33;;;4.07;;
56114;SDS011;41988;53.020;6.576;2023-02-28T13:12:52;7.05;;;4.07;;
56114;SDS011;41988;53.020;6.576;2023-02-28T13:15:38;6.95;;;4.00;;
56114;SDS011;41988;53.020;6.576;2023-02-28T13:27:37;6.43;;;4.05;;
56114;SDS011;41988;53.020;6.576;2023-02-28T13:39:03;6.80;;;4.20;;
56114;SDS011;41988;53.020;6.576;2023-02-28T13:41:49;8.10;;;3.58;;
56114;SDS011;41988;53.020;6.576;2023-02-28T13:44:45;6.32;;;4.47;;
56114;SDS011;41988;53.020;6.576;2023-02-28T13:47:39;8.27;;;4.22;;
56114;SDS011;41988;53.020;6.576;2023-02-28T13:50:29;7.38;;;4.50;;
56114;SDS011;41988;53.020;6.576;2023-02-28T14:01:53;7.82;;;4.00;;
56114;SDS011;41988;53.020;6.576;2023-02-28T14:11:02;9.75;;;4.22;;
56114;SDS011;41988;53.020;6.576;2023-02-28T14:13:47;6.03;;;3.90;;
56114;SDS011;41988;53.020;6.576;2023-02-28T14:16:44;5.85;;;3.83;;
56114;SDS011;41988;53.020;6.576;2023-02-28T14:19:30;7.50;;;4.00;;
56114;SDS011;41988;53.020;6.576;2023-02-28T14:31:13;5.68;;;3.60;;
56114;SDS011;41988;53.020;6.576;2023-02-28T14:36:49;6.32;;;3.63;;
56114;SDS011;41988;53.020;6.576;2023-02-28T14:39:34;8.52;;;4.20;;
56114;SDS011;41988;53.020;6.576;2023-02-28T14:45:18;5.88;;;3.60;;
56114;SDS011;41988;53.020;6.576;2023-02-28T14:48:04;7.90;;;4.18;;
56114;SDS011;41988;53.020;6.576;2023-02-28T14:50:57;6.70;;;4.72;;
56114;SDS011;41988;53.020;6.576;2023-02-28T14:53:42;10.77;;;4.38;;
56114;SDS011;41988;53.020;6.576;2023-02-28T14:56:30;6.40;;;4.10;;
56114;SDS011;41988;53.020;6.576;2023-02-28T14:59:25;7.68;;;4.38;;
56114;SDS011;41988;53.020;6.576;2023-02-28T15:02:17;6.05;;;4.25;;
56114;SDS011;41988;53.020;6.576;2023-02-28T15:05:25;6.05;;;4.07;;
56114;SDS011;41988;53.020;6.576;2023-02-28T15:08:15;6.40;;;3.60;;
56114;SDS011;41988;53.020;6.576;2023-02-28T15:11:07;6.90;;;4.90;;
56114;SDS011;41988;53.020;6.576;2023-02-28T15:13:53;9.88;;;4.20;;
56114;SDS011;41988;53.020;6.576;2023-02-28T15:16:41;8.68;;;4.40;;
56114;SDS011;41988;53.020;6.576;2023-02-28T15:19:30;7.20;;;4.00;;
56114;SDS011;41988;53.020;6.576;2023-02-28T15:22:17;9.05;;;4.13;;
56114;SDS011;41988;53.020;6.576;2023-02-28T15:25:05;6.35;;;4.22;;
56114;SDS011;41988;53.020;6.576;2023-02-28T15:27:53;9.73;;;4.43;;
56114;SDS011;41988;53.020;6.576;2023-02-28T15:30:38;9.70;;;4.78;;
56114;SDS011;41988;53.020;6.576;2023-02-28T15:33:27;6.97;;;4.60;;
56114;SDS011;41988;53.020;6.576;2023-02-28T15:36:13;8.43;;;4.47;;
56114;SDS011;41988;53.020;6.576;2023-02-28T15:38:59;7.93;;;4.65;;
56114;SDS011;41988;53.020;6.576;2023-02-28T15:41:45;7.80;;;4.53;;
56114;SDS011;41988;53.020;6.576;2023-02-28T15:44:33;11.00;;;5.10;;
56114;SDS011;41988;53.020;6.576;2023-02-28T15:47:19;8.90;;;4.97;;
56114;SDS011;41988;53.020;6.576;2023-02-28T15:50:06;9.07;;;4.78;;
56114;SDS011;41988;53.020;6.576;2023-02-28T15:52:53;9.50;;;4.95;;
56114;SDS011;41988;53.020;6.576;2023-02-28T15:55:38;8.30;;;4.75;;
56114;SDS011;41988;53.020;6.576;2023-02-28T15:58:23;10.18;;;4.85;;
56114;SDS011;41988;53.020;6.576;2023-02-28T16:01:24;9.93;;;4.50;;
56114;SDS011;41988;53.020;6.576;2023-02-28T16:04:16;7.20;;;4.70;;
56114;SDS011;41988;53.020;6.576;2023-02-28T16:07:04;10.40;;;5.70;;
56114;SDS011;41988;53.020;6.576;2023-02-28T16:09:49;9.57;;;6.22;;
56114;SDS011;41988;53.020;6.576;2023-02-28T16:12:37;7.68;;;4.93;;
56114;SDS011;41988;53.020;6.576;2023-02-28T16:15:23;6.97;;;4.78;;
56114;SDS011;41988;53.020;6.576;2023-02-28T16:18:12;8.15;;;5.65;;
56114;SDS011;41988;53.020;6.576;2023-02-28T16:20:57;7.07;;;4.75;;
56114;SDS011;41988;53.020;6.576;2023-02-28T16:23:41;10.82;;;5.90;;
56114;SDS011;41988;53.020;6.576;2023-02-28T16:26:26;11.02;;;6.43;;
56114;SDS011;41988;53.020;6.576;2023-02-28T16:29:27;11.50;;;5.90;;
56114;SDS011;41988;53.020;6.576;2023-02-28T16:32:15;9.45;;;5.05;;
56114;SDS011;41988;53.020;6.576;2023-02-28T16:35:00;9.05;;;5.50;;
56114;SDS011;41988;53.020;6.576;2023-02-28T16:37:45;7.97;;;5.05;;
56114;SDS011;41988;53.020;6.576;2023-02-28T16:40:33;8.45;;;5.88;;
56114;SDS011;41988;53.020;6.576;2023-02-28T16:43:18;7.75;;;5.65;;
56114;SDS011;41988;53.020;6.576;2023-02-28T16:46:04;7.57;;;4.90;;
56114;SDS011;41988;53.020;6.576;2023-02-28T16:48:50;9.07;;;5.78;;
56114;SDS011;41988;53.020;6.576;2023-02-28T16:51:35;10.15;;;6.30;;
56114;SDS011;41988;53.020;6.576;2023-02-28T16:54:19;10.70;;;6.60;;
56114;SDS011;41988;53.020;6.576;2023-02-28T16:57:04;9.57;;;6.07;;
56114;SDS011;41988;53.020;6.576;2023-02-28T16:59:49;9.73;;;6.30;;
56114;SDS011;41988;53.020;6.576;2023-02-28T17:02:34;9.80;;;6.68;;
56114;SDS011;41988;53.020;6.576;2023-02-28T17:05:19;9.52;;;5.93;;
56114;SDS011;41988;53.020;6.576;2023-02-28T17:08:03;9.90;;;6.05;;
56114;SDS011;41988;53.020;6.576;2023-02-28T17:10:51;9.35;;;6.45;;
56114;SDS011;41988;53.020;6.576;2023-02-28T17:13:36;9.60;;;6.38;;
56114;SDS011;41988;53.020;6.576;2023-02-28T17:19:12;10.10;;;6.95;;
56114;SDS011;41988;53.020;6.576;2023-02-28T17:21:58;9.82;;;6.90;;
56114;SDS011;41988;53.020;6.576;2023-02-28T17:24:42;10.07;;;7.15;;
56114;SDS011;41988;53.020;6.576;2023-02-28T17:27:29;9.73;;;6.22;;
56114;SDS011;41988;53.020;6.576;2023-02-28T17:30:18;14.48;;;7.45;;
56114;SDS011;41988;53.020;6.576;2023-02-28T17:33:03;12.00;;;8.17;;
56114;SDS011;41988;53.020;6.576;2023-02-28T17:35:48;9.65;;;6.90;;
56114;SDS011;41988;53.020;6.576;2023-02-28T17:38:32;12.20;;;6.40;;
56114;SDS011;41988;53.020;6.576;2023-02-28T17:41:17;11.20;;;7.27;;
56114;SDS011;41988;53.020;6.576;2023-02-28T17:44:01;12.27;;;7.07;;
56114;SDS011;41988;53.020;6.576;2023-02-28T17:46:46;11.50;;;7.00;;
56114;SDS011;41988;53.020;6.576;2023-02-28T17:49:31;7.90;;;6.40;;
56114;SDS011;41988;53.020;6.576;2023-02-28T17:52:16;8.80;;;6.20;;
56114;SDS011;41988;53.020;6.576;2023-02-28T17:55:01;9.37;;;6.40;;
56114;SDS011;41988;53.020;6.576;2023-02-28T17:57:46;8.43;;;6.27;;
56114;SDS011;41988;53.020;6.576;2023-02-28T18:00:31;11.43;;;7.18;;
56114;SDS011;41988;53.020;6.576;2023-02-28T18:03:17;12.63;;;6.77;;
56114;SDS011;41988;53.020;6.576;2023-02-28T18:06:04;11.53;;;6.97;;
56114;SDS011;41988;53.020;6.576;2023-02-28T18:08:49;10.10;;;7.43;;
56114;SDS011;41988;53.020;6.576;2023-02-28T18:11:35;12.70;;;7.67;;
56114;SDS011;41988;53.020;6.576;2023-02-28T18:14:25;10.60;;;7.20;;
56114;SDS011;41988;53.020;6.576;2023-02-28T18:17:09;12.80;;;9.03;;
56114;SDS011;41988;53.020;6.576;2023-02-28T18:19:56;13.10;;;8.80;;
56114;SDS011;41988;53.020;6.576;2023-02-28T18:22:40;12.53;;;9.27;;
56114;SDS011;41988;53.020;6.576;2023-02-28T18:25:25;12.07;;;8.67;;
56114;SDS011;41988;53.020;6.576;2023-02-28T18:28:10;12.53;;;8.93;;
56114;SDS011;41988;53.020;6.576;2023-02-28T18:30:57;13.17;;;8.70;;
56114;SDS011;41988;53.020;6.576;2023-02-28T18:33:51;13.00;;;8.17;;
56114;SDS011;41988;53.020;6.576;2023-02-28T18:36:36;14.03;;;8.57;;
56114;SDS011;41988;53.020;6.576;2023-02-28T18:39:21;11.23;;;7.33;;
56114;SDS011;41988;53.020;6.576;2023-02-28T18:42:05;14.10;;;8.77;;
56114;SDS011;41988;53.020;6.576;2023-02-28T18:44:53;15.13;;;7.90;;
56114;SDS011;41988;53.020;6.576;2023-02-28T18:47:37;13.07;;;7.90;;
56114;SDS011;41988;53.020;6.576;2023-02-28T18:50:22;16.10;;;8.10;;
56114;SDS011;41988;53.020;6.576;2023-02-28T18:53:06;14.73;;;8.00;;
56114;SDS011;41988;53.020;6.576;2023-02-28T18:55:51;12.60;;;8.83;;
56114;SDS011;41988;53.020;6.576;2023-02-28T18:58:38;12.13;;;7.70;;
56114;SDS011;41988;53.020;6.576;2023-02-28T19:01:27;11.57;;;8.03;;